Time;durP1;ratioP1;P1;durP2;ratioP2;P2;SDS_P1;SDS_P2;PMS_P1;PMS_P2;Temp;Humidity;BMP_temperature;BMP_pressure;BME280_temperature;BME280_humidity;BME280_pressure;Samples;Min_cycle;Max_cycle;Signal;HPM_P1;HPM_P2
2021/12/06 00:01:09;;;;;;;7.13;1.65;;;4.70;1.00;;;;;;5034573;28;20507;-73
2021/12/06 00:03:48;;;;;;;5.25;1.65;;;4.80;1.00;;;;;;5005841;28;20611;-74
2021/12/06 00:06:15;;;;;;;3.22;1.73;;;4.70;1.00;;;;;;5034670;28;20077;-73
2021/12/06 00:08:41;;;;;;;3.45;1.55;;;4.80;1.00;;;;;;5034665;28;20512;-73
2021/12/06 00:11:09;;;;;;;5.20;1.45;;;4.70;1.00;;;;;;5034630;28;20065;-74
2021/12/06 00:13:45;;;;;;;5.10;1.30;;;4.80;1.00;;;;;;5034296;28;20116;-73
2021/12/06 00:16:18;;;;;;;5.45;1.52;;;4.80;1.00;;;;;;5034677;28;20096;-74
2021/12/06 00:18:45;;;;;;;3.70;1.27;;;4.70;1.30;;;;;;5034704;28;20040;-74
2021/12/06 00:21:11;;;;;;;6.35;1.77;;;4.70;1.00;;;;;;5034290;28;20041;-74
2021/12/06 00:23:38;;;;;;;4.93;1.30;;;4.70;1.00;;;;;;5034229;28;20041;-74
2021/12/06 00:26:05;;;;;;;7.65;1.70;;;4.80;1.00;;;;;;5034411;28;20144;-74
2021/12/06 00:28:32;;;;;;;4.97;1.40;;;4.80;2.20;;;;;;5034324;28;20038;-73
2021/12/06 00:30:58;;;;;;;3.90;1.17;;;4.90;1.00;;;;;;5034300;28;20048;-74
2021/12/06 00:33:25;;;;;;;4.93;1.20;;;5.10;1.00;;;;;;5033985;28;20037;-73
2021/12/06 00:35:51;;;;;;;6.00;1.65;;;5.10;1.00;;;;;;5034082;28;20049;-74
2021/12/06 00:38:18;;;;;;;5.70;1.40;;;5.10;1.00;;;;;;5034751;28;20041;-74
2021/12/06 00:40:46;;;;;;;5.03;1.17;;;5.10;1.00;;;;;;5034340;28;20042;-74
2021/12/06 00:43:13;;;;;;;4.43;1.50;;;5.10;1.00;;;;;;5034023;28;20041;-74
2021/12/06 00:45:39;;;;;;;6.22;2.60;;;5.00;1.00;;;;;;5034197;28;20060;-74
2021/12/06 00:48:05;;;;;;;3.25;1.45;;;4.90;1.00;;;;;;5034098;28;20038;-74
2021/12/06 00:50:34;;;;;;;6.20;1.30;;;5.00;1.00;;;;;;5035036;28;20037;-74
2021/12/06 00:53:00;;;;;;;3.25;1.30;;;5.00;1.00;;;;;;5034250;28;20044;-74
2021/12/06 00:55:27;;;;;;;5.32;1.25;;;5.00;1.00;;;;;;5034154;28;20099;-74
2021/12/06 00:57:53;;;;;;;4.82;1.77;;;5.00;1.00;;;;;;5034535;28;20038;-73
2021/12/06 01:00:33;;;;;;;4.05;1.05;;;5.00;1.00;;;;;;5037782;28;20039;-74
2021/12/06 01:03:00;;;;;;;4.17;1.37;;;5.00;1.00;;;;;;5037661;28;20048;-73
2021/12/06 01:05:27;;;;;;;4.07;1.35;;;5.00;1.00;;;;;;5037335;28;20128;-73
2021/12/06 01:07:54;;;;;;;6.65;1.45;;;5.00;1.00;;;;;;5037651;28;20037;-73
2021/12/06 01:10:22;;;;;;;5.85;1.13;;;5.00;1.00;;;;;;5037497;28;20044;-74
2021/12/06 01:12:48;;;;;;;4.50;1.40;;;4.90;2.00;;;;;;5037552;28;20033;-73
2021/12/06 01:15:14;;;;;;;7.70;1.10;;;4.80;19.10;;;;;;5037100;28;20033;-73
2021/12/06 01:17:40;;;;;;;3.50;1.10;;;4.70;25.80;;;;;;5037397;28;20037;-73
2021/12/06 01:20:11;;;;;;;3.40;1.00;;;4.60;32.00;;;;;;5037414;28;20056;-73
2021/12/06 01:22:49;;;;;;;5.35;1.50;;;4.60;29.70;;;;;;5037234;28;20175;-74
2021/12/06 01:25:46;;;;;;;2.03;0.90;;;4.50;46.80;;;;;;5036802;28;20178;-73
2021/12/06 01:41:24;;;;;;;2.45;0.80;;;4.60;45.90;;;;;;5036451;28;20456;-74
2021/12/06 01:44:22;;;;;;;4.22;1.27;;;4.60;58.90;;;;;;5036688;28;20041;-74
2021/12/06 01:47:01;;;;;;;1.20;0.90;;;4.60;48.90;;;;;;5003056;28;20404;-73
2021/12/06 01:49:30;;;;;;;6.10;1.30;;;4.60;53.70;;;;;;5036948;28;20045;-73
2021/12/06 01:51:58;;;;;;;2.13;0.70;;;4.70;47.30;;;;;;5036421;28;20192;-73
2021/12/06 01:54:25;;;;;;;4.72;0.95;;;4.70;20.30;;;;;;5036266;28;20079;-74
2021/12/06 01:56:52;;;;;;;2.55;1.13;;;4.70;57.60;;;;;;5036250;28;20064;-74
2021/12/06 01:59:22;;;;;;;2.90;0.88;;;4.60;54.50;;;;;;5036153;28;20072;-74
2021/12/06 02:01:48;;;;;;;4.20;1.17;;;4.70;48.70;;;;;;5036468;28;20091;-73
2021/12/06 02:04:15;;;;;;;2.80;0.77;;;4.70;52.40;;;;;;5036013;28;20029;-73
2021/12/06 02:06:42;;;;;;;2.35;0.88;;;4.80;22.20;;;;;;5036236;28;20071;-73
2021/12/06 02:09:12;;;;;;;1.10;0.60;;;4.80;33.20;;;;;;5036240;28;20039;-73
2021/12/06 02:11:39;;;;;;;1.60;0.93;;;4.70;52.20;;;;;;5035451;28;20033;-74
2021/12/06 02:14:30;;;;;;;2.60;0.75;;;4.70;54.20;;;;;;5036194;28;20256;-73
2021/12/06 02:19:48;;;;;;;2.63;0.70;;;4.70;52.00;;;;;;5035559;28;20476;-73
2021/12/06 02:22:16;;;;;;;;;;;4.70;32.90;;;;;;5036591;28;20037;-74
2021/12/06 02:24:42;;;;;;;3.65;0.93;;;4.70;67.30;;;;;;5035815;28;20283;-74
2021/12/06 02:27:11;;;;;;;1.98;0.82;;;4.70;69.40;;;;;;5036223;28;20037;-74
2021/12/06 02:29:37;;;;;;;2.78;0.93;;;4.70;62.00;;;;;;5035895;28;20033;-73
2021/12/06 02:32:09;;;;;;;2.70;1.40;;;4.60;54.70;;;;;;5036065;28;20037;-73
2021/12/06 02:34:36;;;;;;;1.95;0.60;;;4.60;82.10;;;;;;5036370;28;20080;-74
2021/12/06 02:37:03;;;;;;;0.68;0.60;;;4.60;83.40;;;;;;5036032;28;20553;-73
2021/12/06 02:39:30;;;;;;;2.70;0.80;;;4.50;83.20;;;;;;5036254;28;20489;-73
2021/12/06 02:41:58;;;;;;;2.15;0.90;;;4.40;61.10;;;;;;5035643;28;20029;-73
2021/12/06 02:44:24;;;;;;;2.38;0.70;;;4.50;99.20;;;;;;5035867;28;20095;-73
2021/12/06 02:46:50;;;;;;;2.35;0.93;;;4.50;96.00;;;;;;5035374;28;20037;-73
2021/12/06 02:49:16;;;;;;;1.77;1.00;;;4.50;88.10;;;;;;5035520;28;20071;-73
2021/12/06 02:51:42;;;;;;;1.17;0.57;;;4.50;91.60;;;;;;5035701;28;20044;-73
2021/12/06 02:54:09;;;;;;;2.33;0.82;;;4.50;90.90;;;;;;5036250;28;20052;-73
2021/12/06 02:56:51;;;;;;;1.65;0.65;;;4.60;69.90;;;;;;5035582;28;20099;-73
2021/12/06 02:59:20;;;;;;;2.33;0.68;;;4.60;71.70;;;;;;5035547;28;20068;-73
2021/12/06 03:01:54;;;;;;;1.15;0.60;;;4.60;91.80;;;;;;5035689;28;20068;-74
2021/12/06 03:04:20;;;;;;;3.20;0.80;;;4.50;78.60;;;;;;5035568;28;20079;-74
2021/12/06 03:06:48;;;;;;;1.85;0.70;;;4.50;99.90;;;;;;5035132;28;20065;-73
2021/12/06 03:09:19;;;;;;;4.03;0.95;;;4.50;95.90;;;;;;5035758;28;20131;-73
2021/12/06 03:11:52;;;;;;;2.08;0.73;;;4.50;75.00;;;;;;5035518;28;20037;-74
2021/12/06 03:14:34;;;;;;;3.25;0.73;;;4.50;93.90;;;;;;5035948;28;20037;-73
2021/12/06 03:17:02;;;;;;;3.08;0.60;;;4.50;65.30;;;;;;5034872;28;20103;-74
2021/12/06 03:19:29;;;;;;;1.05;0.60;;;4.60;59.30;;;;;;5035047;28;20480;-73
2021/12/06 03:21:56;;;;;;;2.72;1.00;;;4.60;72.50;;;;;;5033973;28;20060;-74
2021/12/06 03:24:22;;;;;;;4.75;1.48;;;4.60;61.10;;;;;;5034758;28;21061;-74
2021/12/06 03:26:51;;;;;;;5.80;1.30;;;4.70;44.60;;;;;;5035375;28;20098;-73
2021/12/06 03:29:18;;;;;;;4.28;1.08;;;4.60;83.00;;;;;;5034932;28;20049;-74
2021/12/06 03:31:47;;;;;;;3.97;0.90;;;4.60;78.20;;;;;;5034900;28;20040;-73
2021/12/06 03:34:13;;;;;;;3.22;0.90;;;4.60;83.50;;;;;;5034491;28;20053;-73
2021/12/06 03:36:40;;;;;;;1.45;0.77;;;4.60;92.10;;;;;;5035004;28;20083;-73
2021/12/06 03:39:15;;;;;;;3.13;1.17;;;4.50;88.20;;;;;;5035291;28;20050;-74
2021/12/06 03:41:40;;;;;;;4.22;0.88;;;4.50;99.90;;;;;;5034967;28;20177;-73
2021/12/06 03:44:06;;;;;;;2.90;0.70;;;4.40;86.20;;;;;;5034913;28;20128;-73
2021/12/06 03:46:33;;;;;;;2.17;0.70;;;4.50;85.60;;;;;;5034687;28;20042;-73
2021/12/06 03:49:06;;;;;;;2.03;0.50;;;4.60;72.20;;;;;;5034791;28;20099;-73
2021/12/06 03:51:32;;;;;;;2.05;0.75;;;4.50;50.50;;;;;;5034590;28;20124;-73
2021/12/06 03:53:57;;;;;;;0.43;0.38;;;4.50;91.20;;;;;;5034788;28;20552;-74
2021/12/06 03:56:23;;;;;;;1.60;0.50;;;4.50;82.50;;;;;;5034658;28;20132;-74
2021/12/06 03:58:49;;;;;;;0.88;0.30;;;4.50;88.50;;;;;;5034889;28;20045;-73
2021/12/06 04:01:15;;;;;;;0.50;0.40;;;4.40;99.90;;;;;;5034981;28;20080;-74
2021/12/06 04:03:42;;;;;;;0.52;0.43;;;4.40;99.90;;;;;;5034699;28;20046;-73
2021/12/06 04:06:08;;;;;;;0.88;0.30;;;4.40;96.00;;;;;;5050223;28;20381;-73
2021/12/06 04:08:34;;;;;;;1.35;0.47;;;4.30;99.90;;;;;;5034688;28;20092;-73
2021/12/06 04:11:01;;;;;;;0.80;0.50;;;4.20;99.90;;;;;;5034740;28;20041;-73
2021/12/06 04:13:26;;;;;;;0.30;0.30;;;4.10;99.90;;;;;;5034609;28;20045;-73
2021/12/06 04:15:53;;;;;;;0.30;0.30;;;4.20;99.90;;;;;;5034511;28;20041;-73
2021/12/06 04:18:19;;;;;;;2.03;0.80;;;4.30;99.90;;;;;;5034207;28;20049;-73
2021/12/06 04:20:44;;;;;;;0.95;0.57;;;4.30;99.90;;;;;;5034577;28;20505;-73
2021/12/06 04:23:11;;;;;;;4.85;0.70;;;4.30;99.90;;;;;;5034288;28;20044;-73
2021/12/06 04:25:38;;;;;;;1.55;0.88;;;4.40;81.70;;;;;;5033977;28;20132;-73
2021/12/06 04:28:07;;;;;;;2.05;1.00;;;4.50;55.90;;;;;;5034158;28;20071;-73
2021/12/06 04:30:36;;;;;;;1.70;1.20;;;4.40;74.00;;;;;;5034114;28;20091;-74
2021/12/06 04:33:03;;;;;;;4.53;1.00;;;4.40;87.40;;;;;;5034694;28;20075;-73
2021/12/06 04:35:29;;;;;;;2.45;1.00;;;4.50;95.40;;;;;;5038185;28;20079;-74
2021/12/06 04:37:56;;;;;;;1.48;0.80;;;4.50;58.00;;;;;;5037933;28;20120;-74
2021/12/06 04:40:22;;;;;;;5.88;0.88;;;4.50;56.30;;;;;;5038262;28;20046;-73
2021/12/06 04:42:48;;;;;;;2.13;1.10;;;4.60;61.50;;;;;;5037888;28;20120;-73
2021/12/06 04:45:14;;;;;;;1.88;0.80;;;4.50;73.20;;;;;;5037503;28;20071;-73
2021/12/06 04:47:41;;;;;;;2.90;0.88;;;4.50;86.00;;;;;;5037628;28;20041;-74
2021/12/06 04:50:09;;;;;;;4.10;1.80;;;4.50;72.20;;;;;;5038088;28;20042;-73
2021/12/06 04:52:36;;;;;;;2.50;0.75;;;4.50;63.00;;;;;;5037828;28;20072;-73
2021/12/06 04:55:08;;;;;;;1.30;0.95;;;4.40;77.80;;;;;;5037700;28;20041;-74
2021/12/06 04:57:41;;;;;;;2.20;0.75;;;4.40;98.30;;;;;;5037692;28;20044;-74
2021/12/06 05:00:30;;;;;;;2.25;0.70;;;4.50;76.50;;;;;;5037938;28;20105;-74
2021/12/06 05:02:57;;;;;;;2.05;0.70;;;4.40;87.70;;;;;;5028940;28;20067;-73
2021/12/06 05:05:30;;;;;;;1.58;0.68;;;4.40;88.70;;;;;;5037387;28;20037;-73
2021/12/06 05:08:05;;;;;;;1.73;0.73;;;4.50;67.40;;;;;;5037163;28;20512;-73
2021/12/06 05:10:31;;;;;;;2.13;1.02;;;4.40;91.00;;;;;;5037206;28;20033;-74
2021/12/06 05:12:57;;;;;;;1.33;0.50;;;4.50;81.60;;;;;;5037314;28;20044;-74
2021/12/06 05:15:23;;;;;;;1.85;0.50;;;4.40;70.20;;;;;;5036937;28;20041;-74
2021/12/06 05:17:49;;;;;;;1.48;0.68;;;4.50;64.30;;;;;;5036795;28;20056;-74
2021/12/06 05:20:15;;;;;;;2.22;1.35;;;4.50;72.40;;;;;;5037127;28;20052;-73
2021/12/06 05:22:42;;;;;;;1.33;0.80;;;4.50;80.00;;;;;;5037129;28;20120;-74
2021/12/06 05:25:11;;;;;;;3.90;1.25;;;4.50;77.70;;;;;;5037176;28;20412;-73
2021/12/06 05:27:37;;;;;;;3.17;1.15;;;4.60;38.30;;;;;;5037108;28;20083;-74
2021/12/06 05:30:06;;;;;;;2.30;1.30;;;4.60;68.80;;;;;;5037445;28;20042;-73
2021/12/06 05:32:34;;;;;;;2.88;1.50;;;4.60;53.90;;;;;;5037102;28;20029;-73
2021/12/06 05:35:06;;;;;;;5.63;1.30;;;4.70;30.20;;;;;;5037302;28;20095;-73
2021/12/06 05:37:35;;;;;;;5.75;1.67;;;4.60;72.20;;;;;;5036459;28;20044;-73
2021/12/06 05:40:04;;;;;;;2.80;1.70;;;4.60;60.60;;;;;;5037433;28;20071;-73
2021/12/06 05:42:30;;;;;;;4.03;1.60;;;4.70;41.80;;;;;;5036814;28;20045;-74
2021/12/06 05:44:55;;;;;;;9.52;1.88;;;4.70;35.90;;;;;;5035879;28;20087;-73
2021/12/06 05:47:21;;;;;;;7.20;1.52;;;4.70;35.80;;;;;;5036847;28;20045;-74
2021/12/06 05:49:47;;;;;;;7.00;2.03;;;4.80;29.90;;;;;;5036951;28;20476;-74
2021/12/06 05:52:13;;;;;;;3.28;1.45;;;4.70;48.00;;;;;;5036881;28;20042;-73
2021/12/06 05:54:39;;;;;;;7.20;3.00;;;4.80;25.40;;;;;;5036580;28;20044;-74
2021/12/06 05:57:11;;;;;;;5.10;1.75;;;4.80;29.10;;;;;;5036825;28;20488;-73
2021/12/06 05:59:38;;;;;;;7.40;2.13;;;4.90;25.30;;;;;;5037398;28;20045;-73
2021/12/06 06:02:06;;;;;;;4.05;1.63;;;4.90;18.60;;;;;;5036543;28;20072;-74
2021/12/06 06:04:32;;;;;;;5.38;2.17;;;4.90;15.70;;;;;;5036658;28;20557;-74
2021/12/06 06:06:58;;;;;;;6.63;2.30;;;4.90;33.20;;;;;;5036447;28;20188;-73
2021/12/06 06:09:24;;;;;;;4.97;1.55;;;4.80;36.10;;;;;;5036568;28;20106;-74
2021/12/06 06:11:50;;;;;;;7.03;2.45;;;4.80;30.80;;;;;;5036806;28;20416;-74
2021/12/06 06:14:16;;;;;;;5.18;1.60;;;4.80;28.30;;;;;;5036462;28;20119;-74
2021/12/06 06:16:51;;;;;;;6.18;1.67;;;4.80;29.20;;;;;;5036283;28;20457;-73
2021/12/06 06:19:20;;;;;;;4.75;2.20;;;4.80;22.80;;;;;;5036099;28;20041;-74
2021/12/06 06:21:46;;;;;;;6.15;1.67;;;4.90;23.50;;;;;;5035920;28;20056;-73
2021/12/06 06:24:12;;;;;;;6.75;1.90;;;4.90;24.90;;;;;;5036321;28;20120;-74
2021/12/06 06:26:38;;;;;;;7.00;2.10;;;4.90;23.60;;;;;;5036339;28;20124;-74
2021/12/06 06:29:04;;;;;;;6.50;1.50;;;4.80;26.70;;;;;;5036120;28;20041;-73
2021/12/06 06:31:32;;;;;;;3.63;1.63;;;4.90;23.70;;;;;;5035447;28;20057;-73
2021/12/06 06:33:58;;;;;;;2.72;1.40;;;4.80;29.60;;;;;;5035646;28;20095;-74
2021/12/06 06:36:24;;;;;;;3.13;1.40;;;4.80;20.70;;;;;;5035672;28;20115;-73
2021/12/06 06:38:50;;;;;;;3.03;1.33;;;4.80;32.60;;;;;;5035603;28;20493;-74
2021/12/06 06:41:16;;;;;;;4.82;1.65;;;4.80;51.80;;;;;;5035722;28;20041;-73
2021/12/06 06:43:41;;;;;;;7.47;1.60;;;4.70;58.00;;;;;;5035368;28;20049;-74
2021/12/06 06:46:08;;;;;;;4.22;1.20;;;4.70;46.20;;;;;;5035257;28;20073;-74
2021/12/06 06:48:34;;;;;;;6.70;1.90;;;4.60;57.60;;;;;;5035480;28;20069;-73
2021/12/06 06:51:00;;;;;;;1.70;0.80;;;4.60;37.90;;;;;;5035490;28;20037;-73
2021/12/06 06:53:27;;;;;;;2.60;0.95;;;4.60;44.60;;;;;;5034232;28;20040;-73
2021/12/06 06:55:54;;;;;;;5.03;1.08;;;4.50;65.10;;;;;;5034503;28;20052;-73
2021/12/06 06:58:20;;;;;;;2.45;0.93;;;4.50;70.50;;;;;;5034982;28;20037;-73
2021/12/06 07:00:46;;;;;;;1.35;0.77;;;4.40;82.30;;;;;;5035158;28;20037;-73
2021/12/06 07:03:11;;;;;;;1.92;0.80;;;4.40;76.30;;;;;;5034802;28;20040;-73
2021/12/06 07:05:38;;;;;;;2.85;0.90;;;4.40;75.30;;;;;;5021442;28;20041;-74
2021/12/06 07:08:04;;;;;;;4.25;1.73;;;4.50;32.80;;;;;;5031311;28;20083;-73
2021/12/06 07:10:31;;;;;;;2.22;1.17;;;4.50;33.60;;;;;;5034081;28;20041;-73
2021/12/06 07:12:57;;;;;;;3.63;0.98;;;4.50;48.70;;;;;;5034745;28;20041;-72
2021/12/06 07:15:29;;;;;;;1.20;0.70;;;4.40;99.90;;;;;;5033607;28;20037;-73
2021/12/06 07:17:56;;;;;;;2.85;1.48;;;4.20;99.90;;;;;;5031907;28;20033;-73
2021/12/06 07:20:23;;;;;;;4.00;1.23;;;4.10;99.90;;;;;;5032886;28;20049;-73
2021/12/06 07:22:53;;;;;;;2.03;0.63;;;4.00;99.90;;;;;;5034499;28;20069;-73
2021/12/06 07:25:21;;;;;;;2.38;0.90;;;4.10;99.90;;;;;;5034202;28;20081;-73
2021/12/06 07:27:48;;;;;;;4.80;1.30;;;4.10;99.90;;;;;;5034460;28;20041;-73
2021/12/06 07:30:15;;;;;;;2.90;1.23;;;4.30;99.90;;;;;;5033157;28;20052;-73
2021/12/06 07:32:42;;;;;;;4.75;1.40;;;4.30;99.90;;;;;;5033660;28;20121;-73
2021/12/06 07:35:10;;;;;;;5.10;1.40;;;4.30;99.90;;;;;;5034153;28;20068;-73
2021/12/06 07:37:36;;;;;;;4.05;1.75;;;4.20;99.90;;;;;;5034633;28;20100;-73
2021/12/06 07:40:05;;;;;;;17.85;1.73;;;4.20;99.90;;;;;;5034353;28;20095;-74
2021/12/06 07:42:31;;;;;;;5.40;1.90;;;4.30;88.30;;;;;;5033387;28;20129;-73
2021/12/06 07:44:57;;;;;;;3.05;1.45;;;4.30;99.90;;;;;;5041083;28;20128;-74
2021/12/06 07:47:23;;;;;;;3.17;1.38;;;4.20;99.90;;;;;;5034052;28;20120;-74
2021/12/06 07:49:49;;;;;;;4.43;1.50;;;4.30;99.90;;;;;;5034047;28;20053;-74
2021/12/06 07:52:17;;;;;;;5.43;2.33;;;4.30;94.20;;;;;;5034211;28;20168;-73
2021/12/06 07:54:43;;;;;;;4.75;1.52;;;4.30;97.90;;;;;;5033934;28;20049;-74
2021/12/06 07:57:09;;;;;;;2.72;1.10;;;4.40;96.60;;;;;;5034180;28;20053;-73
2021/12/06 07:59:38;;;;;;;2.90;1.38;;;4.40;58.30;;;;;;5033961;28;20099;-74
2021/12/06 08:02:05;;;;;;;3.25;1.80;;;4.50;86.90;;;;;;5033513;28;20033;-74
2021/12/06 08:06:31;;;;;;;2.30;1.13;;;4.60;31.30;;;;;;5116263;27;20926;-73
2021/12/06 08:08:58;;;;;;;2.35;1.42;;;4.70;47.90;;;;;;5130083;27;20406;-79
2021/12/06 08:11:25;;;;;;;6.25;1.55;;;4.70;47.60;;;;;;5113936;28;20132;-77
2021/12/06 08:13:56;;;;;;;3.95;1.70;;;4.70;77.00;;;;;;5129767;28;20059;-78
2021/12/06 08:16:28;;;;;;;3.83;1.35;;;4.70;32.50;;;;;;5121427;28;20126;-74
2021/12/06 08:18:55;;;;;;;5.47;2.13;;;4.80;27.90;;;;;;5127003;28;20100;-73
2021/12/06 08:21:22;;;;;;;3.42;1.00;;;4.70;64.20;;;;;;5128417;28;20040;-73
2021/12/06 08:23:49;;;;;;;3.10;1.13;;;4.70;39.10;;;;;;5124545;27;20040;-74
2021/12/06 08:26:18;;;;;;;2.13;0.85;;;4.60;54.50;;;;;;5130367;28;20043;-74
2021/12/06 08:28:44;;;;;;;3.45;1.00;;;4.70;14.40;;;;;;5131061;27;20047;-75
2021/12/06 08:31:11;;;;;;;3.30;1.45;;;4.70;26.30;;;;;;5130464;27;20103;-75
2021/12/06 08:33:38;;;;;;;2.55;1.52;;;4.70;29.00;;;;;;5131328;27;20039;-74
2021/12/06 08:36:06;;;;;;;4.38;1.92;;;4.70;37.30;;;;;;5129578;28;20070;-74
2021/12/06 08:38:35;;;;;;;3.38;1.52;;;4.80;18.00;;;;;;5130753;27;20088;-76
2021/12/06 08:41:05;;;;;;;6.57;1.50;;;4.80;35.00;;;;;;5128730;28;20047;-74
2021/12/06 08:43:31;;;;;;;3.35;1.20;;;4.80;21.40;;;;;;5129578;28;20533;-74
2021/12/06 08:46:04;;;;;;;3.25;0.98;;;4.90;18.70;;;;;;5129850;28;20035;-75
2021/12/06 08:48:33;;;;;;;6.18;3.22;;;5.00;9.60;;;;;;5130228;28;20035;-77
2021/12/06 08:51:03;;;;;;;6.63;3.13;;;5.00;15.50;;;;;;5118513;28;20027;-74
2021/12/06 08:53:29;;;;;;;4.35;1.55;;;4.90;18.90;;;;;;5109418;28;20039;-76
2021/12/06 08:55:56;;;;;;;3.92;1.50;;;5.00;8.00;;;;;;5123700;28;20035;-75
2021/12/06 08:58:23;;;;;;;4.22;1.50;;;5.00;10.10;;;;;;5130107;28;20494;-75
2021/12/06 09:00:49;;;;;;;5.30;1.90;;;5.10;8.90;;;;;;5130229;28;20032;-75
2021/12/06 09:03:15;;;;;;;6.43;1.10;;;5.10;4.60;;;;;;5130357;28;20043;-76
2021/12/06 09:05:46;;;;;;;4.95;1.70;;;5.10;3.60;;;;;;5130578;28;20090;-76
2021/12/06 09:08:12;;;;;;;2.97;2.13;;;5.00;2.10;;;;;;5129362;28;20042;-77
2021/12/06 09:10:38;;;;;;;3.13;1.38;;;4.80;6.70;;;;;;5129078;28;20389;-77
2021/12/06 09:13:06;;;;;;;4.13;1.70;;;4.80;10.80;;;;;;5122227;28;20150;-76
2021/12/06 09:15:32;;;;;;;4.68;1.73;;;4.80;23.10;;;;;;5130941;28;20045;-75
2021/12/06 09:17:59;;;;;;;2.35;1.75;;;4.90;11.20;;;;;;5114461;28;20074;-75
2021/12/06 09:20:33;;;;;;;2.17;1.20;;;5.10;1.00;;;;;;5116436;28;20448;-73
2021/12/06 09:22:59;;;;;;;3.90;1.52;;;5.30;1.80;;;;;;5116720;28;20386;-75
2021/12/06 09:25:26;;;;;;;4.13;1.38;;;5.40;4.20;;;;;;5116079;27;20778;-76
2021/12/06 09:27:53;;;;;;;4.55;1.73;;;5.50;3.60;;;;;;5115554;28;20506;-74
2021/12/06 09:30:24;;;;;;;4.13;1.33;;;5.50;1.00;;;;;;5115554;28;20114;-74
2021/12/06 09:32:50;;;;;;;6.20;2.17;;;5.40;4.20;;;;;;5116236;28;20047;-73
2021/12/06 09:35:21;;;;;;;7.63;2.15;;;5.40;1.00;;;;;;5116636;28;20063;-76
2021/12/06 09:37:47;;;;;;;4.57;1.67;;;5.40;3.80;;;;;;5096177;28;20032;-73
2021/12/06 09:40:17;;;;;;;3.33;1.60;;;5.60;1.00;;;;;;5095749;28;20085;-72
2021/12/06 09:42:45;;;;;;;3.97;1.70;;;5.70;1.00;;;;;;5092803;28;20375;-73
2021/12/06 09:45:22;;;;;;;7.03;2.10;;;5.90;1.00;;;;;;5094843;28;20047;-73
2021/12/06 09:47:52;;;;;;;3.25;1.40;;;5.80;1.00;;;;;;5097411;28;20048;-73
2021/12/06 09:50:23;;;;;;;2.38;1.05;;;5.90;1.00;;;;;;5115016;28;20521;-73
2021/12/06 09:52:49;;;;;;;2.60;1.10;;;5.90;1.00;;;;;;5115320;28;20486;-73
2021/12/06 09:55:15;;;;;;;2.33;1.05;;;5.80;1.00;;;;;;5136141;27;20058;-72
2021/12/06 09:57:41;;;;;;;5.53;1.45;;;5.80;1.00;;;;;;5124209;27;20070;-72
2021/12/06 10:00:09;;;;;;;3.30;1.08;;;5.90;1.00;;;;;;5093776;28;20024;-75
2021/12/06 10:02:35;;;;;;;3.08;1.00;;;6.00;1.00;;;;;;5113158;28;20052;-71
2021/12/06 10:05:02;;;;;;;2.50;1.27;;;6.20;1.00;;;;;;5114217;28;20529;-76
2021/12/06 10:07:28;;;;;;;3.60;1.65;;;6.30;1.00;;;;;;5113426;28;20041;-75
2021/12/06 10:09:54;;;;;;;2.90;1.52;;;6.30;1.00;;;;;;5102823;28;20035;-78
2021/12/06 10:12:22;;;;;;;4.03;1.48;;;6.20;1.00;;;;;;5114437;28;20023;-76
2021/12/06 10:14:48;;;;;;;4.25;1.70;;;6.10;1.00;;;;;;5114972;28;20514;-75
2021/12/06 10:17:15;;;;;;;5.72;2.03;;;5.90;8.40;;;;;;5114479;28;20051;-76
2021/12/06 10:19:43;;;;;;;4.15;1.20;;;6.00;4.10;;;;;;5113729;28;20506;-76
2021/12/06 10:22:09;;;;;;;2.95;1.65;;;6.00;1.00;;;;;;5114717;28;20521;-76
2021/12/06 10:24:36;;;;;;;3.17;1.85;;;6.00;6.70;;;;;;5109671;28;20040;-75
2021/12/06 10:27:13;;;;;;;3.15;1.00;;;6.00;1.00;;;;;;5113273;28;20096;-75
2021/12/06 10:29:53;;;;;;;2.67;1.17;;;6.00;1.00;;;;;;5113128;28;20035;-73
2021/12/06 10:32:27;;;;;;;3.95;1.30;;;6.10;1.00;;;;;;5114219;28;20027;-72
2021/12/06 10:34:57;;;;;;;2.80;1.63;;;6.40;1.00;;;;;;5115609;27;20096;-72
2021/12/06 10:37:47;;;;;;;4.60;2.08;;;6.30;1.00;;;;;;5114293;28;20046;-73
2021/12/06 10:40:26;;;;;;;5.00;1.80;;;5.90;1.00;;;;;;5113699;28;20043;-74
2021/12/06 10:42:54;;;;;;;4.97;1.38;;;5.70;1.00;;;;;;5113202;28;20043;-74
2021/12/06 10:45:23;;;;;;;2.50;1.30;;;5.60;1.00;;;;;;5104563;28;20138;-75
2021/12/06 10:48:08;;;;;;;2.38;1.38;;;5.60;1.00;;;;;;5110904;28;20035;-77
2021/12/06 10:50:35;;;;;;;4.35;1.42;;;5.80;1.00;;;;;;5113783;28;20038;-77
2021/12/06 10:53:03;;;;;;;4.35;1.42;;;5.80;1.00;;;;;;5114288;28;20250;-75
2021/12/06 10:55:35;;;;;;;5.40;1.40;;;5.90;1.00;;;;;;5101651;28;20039;-77
2021/12/06 10:58:10;;;;;;;1.38;0.90;;;6.10;1.00;;;;;;5103819;28;20043;-77
2021/12/06 11:00:36;;;;;;;2.80;1.55;;;6.10;1.00;;;;;;5109988;28;20031;-77
2021/12/06 11:03:04;;;;;;;4.45;1.67;;;6.10;1.00;;;;;;5100668;28;20036;-77
2021/12/06 11:05:35;;;;;;;3.40;1.80;;;6.00;1.00;;;;;;5094032;28;20149;-77
2021/12/06 11:08:14;;;;;;;;;;;6.20;1.00;;;;;;5091536;28;20063;-77
2021/12/06 11:10:48;;;;;;;2.67;1.10;;;6.20;1.00;;;;;;5108813;28;19985;-76
2021/12/06 11:13:35;;;;;;;3.28;1.30;;;6.30;1.00;;;;;;5110930;28;20027;-77
2021/12/06 11:16:12;;;;;;;4.68;1.77;;;6.30;1.00;;;;;;5113168;28;20122;-79
2021/12/06 11:18:50;;;;;;;3.95;1.42;;;6.20;1.00;;;;;;5112726;28;20399;-76
2021/12/06 11:21:24;;;;;;;5.50;1.40;;;6.00;1.00;;;;;;5113119;28;20036;-75
2021/12/06 11:24:12;;;;;;;3.40;1.08;;;5.90;1.00;;;;;;5113745;28;20479;-77
2021/12/06 11:26:48;;;;;;;5.70;1.35;;;5.90;1.00;;;;;;5102251;28;20086;-77
2021/12/06 11:29:20;;;;;;;4.85;1.38;;;5.90;1.00;;;;;;5111062;28;20032;-80
2021/12/06 11:31:57;;;;;;;3.50;1.13;;;6.00;1.00;;;;;;5089731;28;20563;-78
2021/12/06 11:34:28;;;;;;;2.22;1.42;;;6.00;1.00;;;;;;5103344;28;20072;-76
2021/12/06 11:36:54;;;;;;;2.65;1.02;;;6.00;1.00;;;;;;5110962;28;20066;-78
2021/12/06 11:39:24;;;;;;;4.50;1.90;;;6.10;1.00;;;;;;5110107;28;20126;-77
2021/12/06 11:41:56;;;;;;;3.40;1.20;;;6.10;1.00;;;;;;5111033;28;20418;-79
2021/12/06 11:44:30;;;;;;;5.10;1.83;;;6.10;1.00;;;;;;5112391;28;20757;-76
2021/12/06 11:47:09;;;;;;;3.55;1.73;;;6.20;1.00;;;;;;5111865;28;20047;-76
2021/12/06 11:49:39;;;;;;;4.93;1.60;;;6.20;1.00;;;;;;5110746;28;20112;-76
2021/12/06 11:52:08;;;;;;;6.75;1.60;;;6.20;1.00;;;;;;5111603;28;20079;-76
2021/12/06 11:54:40;;;;;;;3.15;1.50;;;6.30;1.00;;;;;;5110692;28;20051;-76
2021/12/06 11:57:16;;;;;;;5.65;1.25;;;6.40;1.00;;;;;;5109452;28;20047;-75
2021/12/06 12:00:07;;;;;;;2.83;1.15;;;6.40;1.00;;;;;;5103409;28;20529;-78
2021/12/06 12:02:55;;;;;;;4.90;1.38;;;6.30;1.00;;;;;;5100239;28;20044;-76
2021/12/06 12:05:38;;;;;;;4.13;1.38;;;6.30;1.00;;;;;;5090971;28;20558;-75
2021/12/06 12:08:09;;;;;;;4.75;2.00;;;6.30;1.00;;;;;;5105256;28;20518;-76
2021/12/06 12:10:37;;;;;;;3.45;1.45;;;6.50;1.00;;;;;;5107503;28;20036;-75
2021/12/06 12:13:05;;;;;;;3.80;1.83;;;6.60;1.00;;;;;;5109365;28;20040;-76
2021/12/06 12:15:32;;;;;;;4.45;1.52;;;6.70;1.00;;;;;;5101958;28;20214;-83
2021/12/06 12:17:59;;;;;;;5.90;1.80;;;6.80;1.00;;;;;;5109725;28;20050;-81
2021/12/06 12:20:25;;;;;;;2.65;1.40;;;6.70;1.00;;;;;;5106572;28;20181;-85
2021/12/06 12:22:54;;;;;;;8.75;1.90;;;6.70;1.00;;;;;;5111997;28;20503;-81
2021/12/06 12:25:47;;;;;;;4.63;2.38;;;6.70;1.00;;;;;;5111700;28;20051;-83
2021/12/06 12:30:37;;;;;;;3.70;2.25;;;6.80;1.00;;;;;;5113276;28;20038;-82
2021/12/06 12:33:05;;;;;;;2.40;1.05;;;6.70;1.00;;;;;;5111432;28;20490;-82
2021/12/06 12:35:34;;;;;;;2.47;1.20;;;6.50;1.00;;;;;;5103535;28;20529;-82
2021/12/06 12:38:00;;;;;;;3.45;1.40;;;6.40;1.00;;;;;;5109543;28;20127;-81
2021/12/06 12:40:49;;;;;;;4.65;1.35;;;6.20;1.00;;;;;;5112732;28;20032;-80
2021/12/06 12:43:22;;;;;;;2.88;1.17;;;6.10;1.00;;;;;;5112390;28;20066;-80
2021/12/06 12:45:52;;;;;;;2.03;0.90;;;6.00;1.00;;;;;;5109936;28;20111;-81
2021/12/06 12:48:25;;;;;;;3.42;1.15;;;6.00;1.00;;;;;;5104385;28;20036;-82
2021/12/06 12:51:07;;;;;;;4.28;1.35;;;6.10;1.00;;;;;;5112307;28;20050;-81
2021/12/06 12:53:54;;;;;;;2.80;1.05;;;6.20;1.00;;;;;;5115694;28;20042;-77
2021/12/06 12:56:25;;;;;;;5.10;1.52;;;6.40;1.00;;;;;;5115433;28;20039;-77
2021/12/06 12:58:52;;;;;;;3.30;1.52;;;6.30;1.00;;;;;;5117576;28;20123;-75
2021/12/06 13:01:21;;;;;;;4.63;1.67;;;6.30;1.00;;;;;;5117272;28;20050;-76
2021/12/06 13:04:01;;;;;;;5.57;1.70;;;6.30;1.00;;;;;;5116810;28;20131;-78
2021/12/06 13:06:37;;;;;;;7.25;2.08;;;6.40;1.00;;;;;;5116572;28;20220;-77
2021/12/06 13:09:18;;;;;;;10.90;2.30;;;6.40;1.00;;;;;;5116487;28;20047;-75
2021/12/06 13:11:48;;;;;;;7.72;1.98;;;6.40;1.00;;;;;;5117318;28;20043;-76
2021/12/06 13:14:39;;;;;;;6.47;1.57;;;6.30;1.00;;;;;;5116318;28;20446;-74
2021/12/06 13:17:11;;;;;;;4.60;1.80;;;6.20;1.00;;;;;;5111632;28;20326;-74
2021/12/06 13:19:44;;;;;;;4.15;1.40;;;6.10;1.00;;;;;;5117017;28;20039;-75
2021/12/06 13:22:14;;;;;;;4.97;1.30;;;6.10;1.00;;;;;;5115248;28;20527;-75
2021/12/06 13:24:45;;;;;;;6.18;1.52;;;6.10;1.00;;;;;;5114764;28;20055;-74
2021/12/06 13:27:21;;;;;;;7.25;1.92;;;6.00;1.00;;;;;;5111641;27;20076;-75
2021/12/06 13:30:01;;;;;;;5.63;1.63;;;6.00;1.00;;;;;;5112916;28;20047;-75
2021/12/06 13:32:31;;;;;;;5.45;1.50;;;5.90;1.00;;;;;;5114038;28;20463;-75
2021/12/06 13:35:35;;;;;;;7.00;1.40;;;5.90;1.00;;;;;;5105423;28;20070;-78